Time;durP1;ratioP1;P1;durP2;ratioP2;P2;SDS_P1;SDS_P2;PMS_P1;PMS_P2;Temp;Humidity;BMP_temperature;BMP_pressure;BME280_temperature;BME280_humidity;BME280_pressure;Samples;Min_cycle;Max_cycle;Signal;HPM_P1;HPM_P2
2023/09/18 05:18:41;;;;;;;;;;;;;;;;;;5042783;28;19956;-41
2023/09/18 05:21:09;;;;;;;;;;;;;;;;;;5037485;28;20458;-42
2023/09/18 05:23:35;;;;;;;;;;;;;;;;;;5045198;28;19909;-43
2023/09/18 05:26:00;;;;;;;;;;;;;;;;;;5049350;28;20032;-43
2023/09/18 05:28:26;;;;;;;;;;;;;;;;;;5049861;28;20306;-45
2023/09/18 05:30:52;;;;;;;;;;;;;;;;;;5051372;28;19909;-43
2023/09/18 05:33:19;;;;;;;;;;;;;;;;;;5051952;28;19968;-43
2023/09/18 05:35:45;;;;;;;;;;;;;;;;;;5052171;28;19978;-43
2023/09/18 05:38:13;;;;;;;;;;;;;;;;;;5051683;28;20329;-43
2023/09/18 05:40:39;;;;;;;;;;;;;;;;;;5033903;28;20493;-41
2023/09/18 05:43:05;;;;;;;;;;;;;;;;;;5051675;28;19942;-41
2023/09/18 05:45:32;;;;;;;;;;;;;;;;;;5051180;28;19955;-41
2023/09/18 05:48:04;;;;;;;;;;;;;;;;;;5051284;28;19947;-41
2023/09/18 05:50:31;;;;;;;;;;;;;;;;;;5051560;28;19908;-41
2023/09/18 05:53:00;;;;;;;;;;;;;;;;;;5051529;28;19909;-42
2023/09/18 05:55:26;;;;;;;;;;;;;;;;;;5051394;28;19912;-43
2023/09/18 05:57:51;;;;;;;;;;;;;;;;;;5051090;28;19948;-42
2023/09/18 06:00:17;;;;;;;;;;;;;;;;;;5050005;28;19975;-42
2023/09/18 06:02:45;;;;;;;;;;;;;;;;;;5051050;28;20387;-42
2023/09/18 06:05:11;;;;;;;;;;;;;;;;;;5050722;28;20412;-43
2023/09/18 06:07:37;;;;;;;;;;;;;;;;;;5050642;28;20058;-43
2023/09/18 06:10:03;;;;;;;;;;;;;;;;;;5050779;28;20310;-43
2023/09/18 06:12:29;;;;;;;;;;;;;;;;;;5032904;28;20005;-43
2023/09/18 06:14:55;;;;;;;;;;;;;;;;;;5050588;28;19913;-43
2023/09/18 06:17:22;;;;;;;;;;;;;;;;;;5050788;28;19913;-41
2023/09/18 06:19:47;;;;;;;;;;;;;;;;;;5051161;28;20268;-42
2023/09/18 06:22:13;;;;;;;;;;;;;;;;;;5050920;28;19925;-42
2023/09/18 06:24:39;;;;;;;;;;;;;;;;;;5050365;28;19913;-41
2023/09/18 06:27:05;;;;;;;;;;;;;;;;;;5050614;28;19912;-41
2023/09/18 06:29:31;;;;;;;;;;;;;;;;;;5050297;28;20364;-42
2023/09/18 06:31:57;;;;;;;;;;;;;;;;;;5050120;28;20450;-42
2023/09/18 06:34:23;;;;;;;;;;;;;;;;;;5047055;28;19913;-42
2023/09/18 06:36:49;;;;;;;;;;;;;;;;;;5039934;28;19913;-43
2023/09/18 06:39:15;;;;;;;;;;;;;;;;;;5029549;28;20003;-43
2023/09/18 06:41:41;;;;;;;;;;;;;;;;;;5030601;28;19919;-43
2023/09/18 06:44:07;;;;;;;;;;;;;;;;;;5049393;28;19909;-44
2023/09/18 06:46:32;;;;;;;;;;;;;;;;;;5048331;28;19920;-43
2023/09/18 06:49:00;;;;;;;;;;;;;;;;;;5049379;28;20403;-43
2023/09/18 06:51:27;;;;;;;;;;;;;;;;;;5049229;28;20370;-42
2023/09/18 06:53:53;;;;;;;;;;;;;;;;;;5049315;28;19987;-42
2023/09/18 06:56:19;;;;;;;;;;;;;;;;;;5049557;28;20374;-42
2023/09/18 06:58:47;;;;;;;;;;;;;;;;;;5048944;28;19909;-42
2023/09/18 07:01:15;;;;;;;;;;;;;;;;;;5048881;28;19920;-42
2023/09/18 07:03:41;;;;;;;;;;;;;;;;;;5048355;28;19956;-42
2023/09/18 07:06:06;;;;;;;;;;;;;;;;;;5049242;28;19985;-43
2023/09/18 07:08:32;;;;;;;;;;;;;;;;;;5048282;28;20304;-44
2023/09/18 07:10:58;;;;;;;;;;;;;;;;;;5048911;28;19936;-42
2023/09/18 07:13:24;;;;;;;;;;;;;;;;;;5048880;28;19915;-42
2023/09/18 07:15:50;;;;;;;;;;;;;;;;;;5049117;28;19920;-43
2023/09/18 07:18:16;;;;;;;;;;;;;;;;;;5018922;28;20357;-42
2023/09/18 07:20:42;;;;;;;;;;;;;;;;;;5047829;28;19909;-43
2023/09/18 07:23:08;;;;;;;;;;;;;;;;;;5045851;28;20008;-45
2023/09/18 07:25:34;;;;;;;;;;;;;;;;;;5047034;28;19920;-48
2023/09/18 07:27:59;;;;;;;;;;;;;;;;;;5047102;28;19909;-44
2023/09/18 07:30:26;;;;;;;;;;;;;;;;;;5048064;28;20238;-44
2023/09/18 07:32:52;;;;;;;;;;;;;;;;;;5050359;28;19909;-47
2023/09/18 07:35:19;;;;;;;;;;;;;;;;;;5050120;28;19927;-46
2023/09/18 07:37:46;;;;;;;;;;;;;;;;;;5050383;28;19967;-47
2023/09/18 07:40:12;;;;;;;;;;;;;;;;;;5051101;28;19954;-46
2023/09/18 07:42:38;;;;;;;;;;;;;;;;;;5050441;28;20321;-46
2023/09/18 07:45:04;;;;;;;;;;;;;;;;;;5050612;28;20221;-44
2023/09/18 07:47:30;;;;;;;;;;;;;;;;;;5050791;28;19956;-44
2023/09/18 07:49:56;;;;;;;;;;;;;;;;;;5050960;28;19952;-45
2023/09/18 07:52:22;;;;;;;;;;;;;;;;;;5050791;28;19975;-44
2023/09/18 07:54:48;;;;;;;;;;;;;;;;;;5051568;28;19917;-44
2023/09/18 07:57:14;;;;;;;;;;;;;;;;;;5050812;28;20248;-44
2023/09/18 07:59:42;;;;;;;;;;;;;;;;;;5051073;28;19915;-46
2023/09/18 08:02:09;;;;;;;;;;;;;;;;;;5047114;28;20418;-47
2023/09/18 08:04:35;;;;;;;;;;;;;;;;;;5051229;28;20009;-45
2023/09/18 08:07:01;;;;;;;;;;;;;;;;;;5051187;28;19975;-45
2023/09/18 08:09:30;;;;;;;;;;;;;;;;;;5051786;28;19908;-45
2023/09/18 08:11:55;;;;;;;;;;;;;;;;;;5034617;28;20269;-45
2023/09/18 08:14:21;;;;;;;;;;;;;;;;;;5044062;28;19919;-46
2023/09/18 08:16:47;;;;;;;;;;;;;;;;;;5050350;28;20031;-48
2023/09/18 08:19:13;;;;;;;;;;;;;;;;;;5049874;28;19937;-46
2023/09/18 08:21:39;;;;;;;;;;;;;;;;;;5050339;28;19909;-44
2023/09/18 08:24:05;;;;;;;;;;;;;;;;;;5050101;28;19905;-44
2023/09/18 08:26:31;;;;;;;;;;;;;;;;;;5050295;28;19983;-42
2023/09/18 08:28:57;;;;;;;;;;;;;;;;;;5050773;28;20329;-43
2023/09/18 08:31:24;;;;;;;;;;;;;;;;;;5050137;28;19991;-43
2023/09/18 08:33:50;;;;;;;;;;;;;;;;;;5049363;28;19966;-43
2023/09/18 08:36:16;;;;;;;;;;;;;;;;;;5032027;28;19917;-44
2023/09/18 08:38:43;;;;;;;;;;;;;;;;;;5049781;28;19994;-44
2023/09/18 08:41:09;;;;;;;;;;;;;;;;;;5049869;28;19996;-46
2023/09/18 08:43:35;;;;;;;;;;;;;;;;;;5049636;28;19943;-42
2023/09/18 08:46:02;;;;;;;;;;;;;;;;;;5050343;28;19912;-42
2023/09/18 08:48:35;;;;;;;;;;;;;;;;;;5049880;28;20341;-42
2023/09/18 08:51:00;;;;;;;;;;;;;;;;;;5049550;28;19995;-41
2023/09/18 08:53:26;;;;;;;;;;;;;;;;;;5049940;28;19951;-42
2023/09/18 08:55:57;;;;;;;;;;;;;;;;;;5049208;28;19927;-43
2023/09/18 08:58:23;;;;;;;;;;;;;;;;;;5049432;28;19909;-43
2023/09/18 09:00:49;;;;;;;;;;;;;;;;;;5034381;28;19982;-47
2023/09/18 09:03:15;;;;;;;;;;;;;;;;;;5049027;28;20475;-46
2023/09/18 09:05:41;;;;;;;;;;;;;;;;;;5026880;28;19956;-44
2023/09/18 09:08:07;;;;;;;;;;;;;;;;;;5049294;28;19908;-45
2023/09/18 09:10:33;;;;;;;;;;;;;;;;;;5049806;28;19909;-47
2023/09/18 09:13:00;;;;;;;;;;;;;;;;;;5050356;28;19909;-44
2023/09/18 09:15:26;;;;;;;;;;;;;;;;;;5047764;28;20395;-43
2023/09/18 09:17:52;;;;;;;;;;;;;;;;;;5049638;28;19916;-45
2023/09/18 09:20:21;;;;;;;;;;;;;;;;;;5049185;28;20011;-45
2023/09/18 09:22:47;;;;;;;;;;;;;;;;;;5048688;28;19913;-44
2023/09/18 09:25:13;;;;;;;;;;;;;;;;;;5049474;28;19919;-44
2023/09/18 09:27:38;;;;;;;;;;;;;;;;;;5049508;28;19915;-45
2023/09/18 09:30:04;;;;;;;;;;;;;;;;;;5048786;28;19917;-46
2023/09/18 09:32:30;;;;;;;;;;;;;;;;;;5048718;28;20349;-43
2023/09/18 09:34:56;;;;;;;;;;;;;;;;;;5045681;28;19975;-45
2023/09/18 09:37:22;;;;;;;;;;;;;;;;;;5047490;28;20381;-44
2023/09/18 09:39:48;;;;;;;;;;;;;;;;;;5047471;28;19909;-44
2023/09/18 09:42:14;;;;;;;;;;;;;;;;;;5047916;28;19915;-45
2023/09/18 09:44:40;;;;;;;;;;;;;;;;;;5048150;28;20370;-45
2023/09/18 09:47:06;;;;;;;;;;;;;;;;;;5029581;28;19928;-43
2023/09/18 09:49:33;;;;;;;;;;;;;;;;;;5027397;28;20280;-42
2023/09/18 09:51:59;;;;;;;;;;;;;;;;;;5044867;28;19917;-44
2023/09/18 09:54:25;;;;;;;;;;;;;;;;;;5042685;28;19938;-44
2023/09/18 09:56:51;;;;;;;;;;;;;;;;;;5044857;28;19951;-45
2023/09/18 09:59:18;;;;;;;;;;;;;;;;;;5047118;28;19909;-45
2023/09/18 10:01:44;;;;;;;;;;;;;;;;;;5047392;28;19919;-45
2023/09/18 10:04:11;;;;;;;;;;;;;;;;;;5044868;28;19913;-44
2023/09/18 10:06:37;;;;;;;;;;;;;;;;;;5046541;28;20346;-44
2023/09/18 10:09:05;;;;;;;;;;;;;;;;;;5043242;28;19913;-44
2023/09/18 10:11:32;;;;;;;;;;;;;;;;;;5047037;28;20342;-44
2023/09/18 10:13:58;;;;;;;;;;;;;;;;;;5046005;28;19999;-44
2023/09/18 10:16:27;;;;;;;;;;;;;;;;;;5046350;28;20431;-42
2023/09/18 10:18:53;;;;;;;;;;;;;;;;;;5048256;28;19917;-42
2023/09/18 10:21:20;;;;;;;;;;;;;;;;;;5047406;28;20326;-43
2023/09/18 10:23:47;;;;;;;;;;;;;;;;;;5030048;28;19924;-43
2023/09/18 10:26:13;;;;;;;;;;;;;;;;;;5049049;28;20461;-44
2023/09/18 10:28:38;;;;;;;;;;;;;;;;;;5030808;28;19913;-44
2023/09/18 10:31:06;;;;;;;;;;;;;;;;;;5029817;28;19913;-43
2023/09/18 10:33:31;;;;;;;;;;;;;;;;;;5047195;28;19923;-43
2023/09/18 10:35:58;;;;;;;;;;;;;;;;;;5045852;28;19925;-43
2023/09/18 10:38:24;;;;;;;;;;;;;;;;;;5046721;28;20359;-43
2023/09/18 10:40:49;;;;;;;;;;;;;;;;;;5047498;28;19940;-43
2023/09/18 10:43:15;;;;;;;;;;;;;;;;;;5047664;28;19923;-44
2023/09/18 10:45:41;;;;;;;;;;;;;;;;;;5047626;28;20294;-43
2023/09/18 10:48:08;;;;;;;;;;;;;;;;;;5030786;28;19909;-44
2023/09/18 10:50:34;;;;;;;;;;;;;;;;;;5047342;28;19913;-44
2023/09/18 10:53:00;;;;;;;;;;;;;;;;;;5029727;28;19909;-43
2023/09/18 10:55:26;;;;;;;;;;;;;;;;;;5046856;28;19973;-43
2023/09/18 10:57:52;;;;;;;;;;;;;;;;;;5047578;28;19995;-44
2023/09/18 11:00:22;;;;;;;;;;;;;;;;;;5047810;28;19908;-44
2023/09/18 11:02:47;;;;;;;;;;;;;;;;;;5047715;28;19996;-44
2023/09/18 11:05:14;;;;;;;;;;;;;;;;;;5047555;28;20054;-44
2023/09/18 11:07:39;;;;;;;;;;;;;;;;;;5051149;28;20050;-44
2023/09/18 11:10:05;;;;;;;;;;;;;;;;;;5051510;28;20188;-44
2023/09/18 11:12:31;;;;;;;;;;;;;;;;;;5033809;28;19916;-44
2023/09/18 11:14:57;;;;;;;;;;;;;;;;;;5050566;28;19913;-44
2023/09/18 11:17:23;;;;;;;;;;;;;;;;;;5051825;28;19916;-44
2023/09/18 11:19:49;;;;;;;;;;;;;;;;;;5050591;28;19909;-44
2023/09/18 11:22:15;;;;;;;;;;;;;;;;;;5050260;28;19975;-44
2023/09/18 11:24:41;;;;;;;;;;;;;;;;;;5050257;28;19908;-45
2023/09/18 11:27:09;;;;;;;;;;;;;;;;;;5050095;28;19917;-44
2023/09/18 11:29:35;;;;;;;;;;;;;;;;;;5050214;28;19908;-43
2023/09/18 11:32:03;;;;;;;;;;;;;;;;;;5049771;28;20007;-44
2023/09/18 11:34:31;;;;;;;;;;;;;;;;;;5049977;28;19920;-45
2023/09/18 11:36:57;;;;;;;;;;;;;;;;;;5049116;28;20378;-44
2023/09/18 11:39:22;;;;;;;;;;;;;;;;;;5050149;28;19950;-45
2023/09/18 11:41:49;;;;;;;;;;;;;;;;;;5049692;28;19909;-44
2023/09/18 11:44:16;;;;;;;;;;;;;;;;;;5049777;28;19920;-44
2023/09/18 11:46:43;;;;;;;;;;;;;;;;;;5049504;28;20011;-44
2023/09/18 11:49:16;;;;;;;;;;;;;;;;;;5032365;28;19990;-44
2023/09/18 11:51:42;;;;;;;;;;;;;;;;;;5030869;28;19948;-44
2023/09/18 11:54:08;;;;;;;;;;;;;;;;;;5050439;28;20356;-45
2023/09/18 11:56:34;;;;;;;;;;;;;;;;;;5049621;28;19913;-43
2023/09/18 11:59:04;;;;;;;;;;;;;;;;;;5049264;28;20274;-43
2023/09/18 12:01:31;;;;;;;;;;;;;;;;;;5049586;28;19913;-45
2023/09/18 12:03:57;;;;;;;;;;;;;;;;;;5049256;28;19909;-44
2023/09/18 12:06:23;;;;;;;;;;;;;;;;;;5049391;28;20430;-45
2023/09/18 12:08:50;;;;;;;;;;;;;;;;;;5049092;28;19909;-44
2023/09/18 12:11:19;;;;;;;;;;;;;;;;;;5049152;28;19924;-44
2023/09/18 12:13:45;;;;;;;;;;;;;;;;;;5049248;28;20342;-46
2023/09/18 12:16:11;;;;;;;;;;;;;;;;;;5048596;28;19921;-44
2023/09/18 12:18:38;;;;;;;;;;;;;;;;;;5048337;28;19936;-44
2023/09/18 12:21:05;;;;;;;;;;;;;;;;;;5031196;28;20379;-44
2023/09/18 12:23:32;;;;;;;;;;;;;;;;;;5031097;28;19917;-43
2023/09/18 12:25:59;;;;;;;;;;;;;;;;;;5048911;28;19974;-44
2023/09/18 12:28:27;;;;;;;;;;;;;;;;;;5048797;28;20007;-46
2023/09/18 12:30:56;;;;;;;;;;;;;;;;;;5030565;28;19920;-45
2023/09/18 12:33:21;;;;;;;;;;;;;;;;;;5048788;28;19913;-43
2023/09/18 12:35:47;;;;;;;;;;;;;;;;;;5030709;28;19935;-43
2023/09/18 12:38:13;;;;;;;;;;;;;;;;;;5048811;28;19994;-44
2023/09/18 12:40:39;;;;;;;;;;;;;;;;;;5049378;28;20329;-44
2023/09/18 12:43:06;;;;;;;;;;;;;;;;;;5047950;28;19921;-43
2023/09/18 12:45:31;;;;;;;;;;;;;;;;;;5030773;28;20379;-43
2023/09/18 12:47:57;;;;;;;;;;;;;;;;;;5048400;28;19916;-44
2023/09/18 12:50:23;;;;;;;;;;;;;;;;;;5048830;28;19913;-43
2023/09/18 12:52:49;;;;;;;;;;;;;;;;;;5047657;28;19913;-43
2023/09/18 12:55:15;;;;;;;;;;;;;;;;;;5048200;28;20429;-43
2023/09/18 12:57:41;;;;;;;;;;;;;;;;;;5047604;28;19913;-44
2023/09/18 13:00:09;;;;;;;;;;;;;;;;;;5030899;28;19928;-43
2023/09/18 13:02:35;;;;;;;;;;;;;;;;;;5030141;28;19962;-44
2023/09/18 13:05:01;;;;;;;;;;;;;;;;;;5048223;28;20321;-43
2023/09/18 13:07:27;;;;;;;;;;;;;;;;;;5048324;28;20236;-44
2023/09/18 13:09:53;;;;;;;;;;;;;;;;;;5030330;28;19908;-43
2023/09/18 13:12:19;;;;;;;;;;;;;;;;;;5046728;28;19909;-44
2023/09/18 13:14:45;;;;;;;;;;;;;;;;;;5048234;28;19992;-44
2023/09/18 13:17:11;;;;;;;;;;;;;;;;;;5047731;28;20376;-44
2023/09/18 13:19:37;;;;;;;;;;;;;;;;;;5030056;28;20365;-44
2023/09/18 13:22:05;;;;;;;;;;;;;;;;;;5047891;28;19999;-45
2023/09/18 13:24:31;;;;;;;;;;;;;;;;;;5048218;28;19940;-43
2023/09/18 13:26:57;;;;;;;;;;;;;;;;;;5047301;28;20322;-44
2023/09/18 13:29:24;;;;;;;;;;;;;;;;;;5045838;28;19920;-44
2023/09/18 13:31:50;;;;;;;;;;;;;;;;;;5028762;28;19916;-43
2023/09/18 13:34:19;;;;;;;;;;;;;;;;;;5029321;28;20544;-43
2023/09/18 13:36:45;;;;;;;;;;;;;;;;;;5032085;28;19924;-44
2023/09/18 13:39:11;;;;;;;;;;;;;;;;;;5030081;28;19909;-43
2023/09/18 13:41:37;;;;;;;;;;;;;;;;;;5029488;28;20425;-44
2023/09/18 13:44:02;;;;;;;;;;;;;;;;;;5027766;28;19913;-45
2023/09/18 13:46:28;;;;;;;;;;;;;;;;;;5028408;28;20272;-45
2023/09/18 13:48:54;;;;;;;;;;;;;;;;;;5027968;28;19964;-45
2023/09/18 13:51:20;;;;;;;;;;;;;;;;;;5028278;28;20344;-44
2023/09/18 13:53:48;;;;;;;;;;;;;;;;;;5047237;28;19913;-44
2023/09/18 13:56:13;;;;;;;;;;;;;;;;;;5048603;28;19963;-44
2023/09/18 13:58:41;;;;;;;;;;;;;;;;;;5048171;28;20403;-44
2023/09/18 14:01:07;;;;;;;;;;;;;;;;;;5030946;28;19996;-44
2023/09/18 14:03:34;;;;;;;;;;;;;;;;;;5030723;28;20039;-45
2023/09/18 14:06:00;;;;;;;;;;;;;;;;;;5048388;28;19944;-47
2023/09/18 14:08:26;;;;;;;;;;;;;;;;;;5048338;28;19963;-44
2023/09/18 14:10:52;;;;;;;;;;;;;;;;;;5018852;28;19967;-44
2023/09/18 14:13:17;;;;;;;;;;;;;;;;;;5028384;28;19909;-44
2023/09/18 14:15:43;;;;;;;;;;;;;;;;;;5028181;28;19913;-43
2023/09/18 14:18:10;;;;;;;;;;;;;;;;;;5028730;28;19917;-43
2023/09/18 14:20:37;;;;;;;;;;;;;;;;;;5027657;28;20140;-44
2023/09/18 14:23:06;;;;;;;;;;;;;;;;;;5028028;28;19917;-44
2023/09/18 14:25:33;;;;;;;;;;;;;;;;;;5028203;28;19909;-45
2023/09/18 14:27:58;;;;;;;;;;;;;;;;;;5029275;28;19909;-42
2023/09/18 14:30:29;;;;;;;;;;;;;;;;;;5030419;28;20513;-43
2023/09/18 14:32:55;;;;;;;;;;;;;;;;;;5030087;28;19913;-42
2023/09/18 14:35:23;;;;;;;;;;;;;;;;;;5047479;28;19916;-43
2023/09/18 14:37:49;;;;;;;;;;;;;;;;;;5047481;28;19916;-43
2023/09/18 14:40:15;;;;;;;;;;;;;;;;;;5047796;28;19909;-42
2023/09/18 14:42:40;;;;;;;;;;;;;;;;;;5038263;28;19944;-43
2023/09/18 14:45:06;;;;;;;;;;;;;;;;;;5028252;28;19917;-43
2023/09/18 14:47:32;;;;;;;;;;;;;;;;;;5028329;28;19905;-42
2023/09/18 14:49:58;;;;;;;;;;;;;;;;;;5027871;28;20331;-43
2023/09/18 14:52:25;;;;;;;;;;;;;;;;;;5027875;28;19909;-43
2023/09/18 14:54:52;;;;;;;;;;;;;;;;;;5032765;28;19920;-43
2023/09/18 14:57:17;;;;;;;;;;;;;;;;;;5047333;28;20279;-43
2023/09/18 14:59:47;;;;;;;;;;;;;;;;;;5047578;28;19909;-43
2023/09/18 15:02:14;;;;;;;;;;;;;;;;;;5048334;28;19909;-42
2023/09/18 15:04:40;;;;;;;;;;;;;;;;;;5048647;28;19908;-42
2023/09/18 15:07:06;;;;;;;;;;;;;;;;;;5047543;28;19917;-42
2023/09/18 15:09:32;;;;;;;;;;;;;;;;;;5048027;28;20015;-43
2023/09/18 15:11:58;;;;;;;;;;;;;;;;;;5047313;28;20383;-43
2023/09/18 15:14:24;;;;;;;;;;;;;;;;;;5047753;28;19909;-43
2023/09/18 15:16:50;;;;;;;;;;;;;;;;;;5042075;28;19917;-42
2023/09/18 15:19:17;;;;;;;;;;;;;;;;;;5027254;28;19972;-43
2023/09/18 15:21:43;;;;;;;;;;;;;;;;;;5039518;28;19920;-42
2023/09/18 15:24:09;;;;;;;;;;;;;;;;;;5047928;28;19916;-43
2023/09/18 15:26:35;;;;;;;;;;;;;;;;;;5047471;28;20385;-43
2023/09/18 15:29:01;;;;;;;;;;;;;;;;;;5029122;28;20027;-43
2023/09/18 15:31:26;;;;;;;;;;;;;;;;;;5047042;28;19921;-42
2023/09/18 15:33:54;;;;;;;;;;;;;;;;;;5047186;28;20279;-43
2023/09/18 15:36:23;;;;;;;;;;;;;;;;;;5047581;28;19919;-43
2023/09/18 15:38:50;;;;;;;;;;;;;;;;;;5046461;28;19983;-43
2023/09/18 15:41:15;;;;;;;;;;;;;;;;;;5047646;28;20096;-42
2023/09/18 15:43:42;;;;;;;;;;;;;;;;;;5047360;28;20440;-42
2023/09/18 15:46:08;;;;;;;;;;;;;;;;;;5047730;28;20391;-43
2023/09/18 15:48:34;;;;;;;;;;;;;;;;;;5026104;28;19923;-42
2023/09/18 15:51:00;;;;;;;;;;;;;;;;;;5033187;28;19913;-42
2023/09/18 15:53:25;;;;;;;;;;;;;;;;;;5034645;28;20311;-42
2023/09/18 15:55:51;;;;;;;;;;;;;;;;;;5044171;28;19985;-42
2023/09/18 15:58:19;;;;;;;;;;;;;;;;;;5051032;28;19909;-42
2023/09/18 16:00:45;;;;;;;;;;;;;;;;;;5050834;28;19908;-42
2023/09/18 16:03:11;;;;;;;;;;;;;;;;;;5051531;28;20619;-42
2023/09/18 16:05:37;;;;;;;;;;;;;;;;;;5047257;28;19915;-42
2023/09/18 16:08:04;;;;;;;;;;;;;;;;;;5043094;28;19914;-42
2023/09/18 16:10:30;;;;;;;;;;;;;;;;;;5032127;28;19913;-42
2023/09/18 16:12:56;;;;;;;;;;;;;;;;;;5048988;28;19923;-43
2023/09/18 16:15:22;;;;;;;;;;;;;;;;;;5049800;28;19920;-43
2023/09/18 16:17:48;;;;;;;;;;;;;;;;;;5049395;28;19921;-43
2023/09/18 16:20:13;;;;;;;;;;;;;;;;;;5049959;28;19915;-43
2023/09/18 16:22:42;;;;;;;;;;;;;;;;;;5032437;28;20044;-43
2023/09/18 16:25:08;;;;;;;;;;;;;;;;;;5032292;28;20352;-43
2023/09/18 16:27:34;;;;;;;;;;;;;;;;;;5050273;28;19920;-43
2023/09/18 16:30:00;;;;;;;;;;;;;;;;;;5049937;28;19917;-43
2023/09/18 16:32:27;;;;;;;;;;;;;;;;;;5032245;28;20338;-43
2023/09/18 16:34:53;;;;;;;;;;;;;;;;;;5050114;28;19916;-43
2023/09/18 16:37:20;;;;;;;;;;;;;;;;;;5050081;28;19963;-44
2023/09/18 16:39:45;;;;;;;;;;;;;;;;;;5049938;28;19909;-44
2023/09/18 16:42:11;;;;;;;;;;;;;;;;;;5051025;28;19916;-43
2023/09/18 16:44:39;;;;;;;;;;;;;;;;;;5050440;28;19999;-44
2023/09/18 16:47:05;;;;;;;;;;;;;;;;;;5050109;28;19916;-44
2023/09/18 16:49:31;;;;;;;;;;;;;;;;;;5050084;28;19908;-44
2023/09/18 16:51:57;;;;;;;;;;;;;;;;;;5049703;28;19972;-44
2023/09/18 16:54:22;;;;;;;;;;;;;;;;;;5050091;28;20355;-43
2023/09/18 16:56:48;;;;;;;;;;;;;;;;;;5031281;28;21674;-43
2023/09/18 16:59:14;;;;;;;;;;;;;;;;;;5031561;28;19919;-43
2023/09/18 17:01:40;;;;;;;;;;;;;;;;;;5050525;28;19909;-43
2023/09/18 17:04:06;;;;;;;;;;;;;;;;;;5048575;28;19959;-44
2023/09/18 17:06:35;;;;;;;;;;;;;;;;;;5049538;28;19920;-44
2023/09/18 17:09:03;;;;;;;;;;;;;;;;;;5049394;28;19974;-43
2023/09/18 17:11:30;;;;;;;;;;;;;;;;;;5050025;28;19909;-44
2023/09/18 17:13:56;;;;;;;;;;;;;;;;;;5049394;28;19908;-43
2023/09/18 17:16:24;;;;;;;;;;;;;;;;;;5049359;28;19960;-47
2023/09/18 17:18:55;;;;;;;;;;;;;;;;;;5031154;28;20366;-44
2023/09/18 17:21:21;;;;;;;;;;;;;;;;;;5049482;28;20387;-44
2023/09/18 17:23:48;;;;;;;;;;;;;;;;;;5031305;28;19992;-44
2023/09/18 17:26:13;;;;;;;;;;;;;;;;;;5049690;28;19909;-44
2023/09/18 17:28:39;;;;;;;;;;;;;;;;;;5049754;28;20481;-43
2023/09/18 17:31:05;;;;;;;;;;;;;;;;;;5049160;28;19962;-43
2023/09/18 17:33:31;;;;;;;;;;;;;;;;;;5048837;28;19920;-43
2023/09/18 17:35:57;;;;;;;;;;;;;;;;;;5048833;28;19913;-44
2023/09/18 17:38:24;;;;;;;;;;;;;;;;;;5048824;28;20015;-43
2023/09/18 17:40:50;;;;;;;;;;;;;;;;;;5048156;28;19913;-43
2023/09/18 17:43:16;;;;;;;;;;;;;;;;;;5031108;28;19919;-45
2023/09/18 17:45:42;;;;;;;;;;;;;;;;;;5049458;28;20453;-43
2023/09/18 17:48:08;;;;;;;;;;;;;;;;;;5048916;28;19909;-44
2023/09/18 17:50:34;;;;;;;;;;;;;;;;;;5030669;28;19939;-44
2023/09/18 17:53:01;;;;;;;;;;;;;;;;;;5046343;28;19920;-43
2023/09/18 17:55:27;;;;;;;;;;;;;;;;;;5045891;28;19924;-43
2023/09/18 17:57:53;;;;;;;;;;;;;;;;;;5047435;28;19921;-44
2023/09/18 18:00:19;;;;;;;;;;;;;;;;;;5029349;28;19912;-43
2023/09/18 18:02:45;;;;;;;;;;;;;;;;;;5045020;28;19951;-43
2023/09/18 18:05:11;;;;;;;;;;;;;;;;;;5027782;28;19919;-44
2023/09/18 18:07:39;;;;;;;;;;;;;;;;;;5048791;28;19908;-44
2023/09/18 18:10:05;;;;;;;;;;;;;;;;;;5029365;28;19921;-44
2023/09/18 18:12:31;;;;;;;;;;;;;;;;;;5045248;28;19913;-44
2023/09/18 18:14:57;;;;;;;;;;;;;;;;;;5046804;28;20363;-44
2023/09/18 18:17:22;;;;;;;;;;;;;;;;;;5048452;28;19916;-43
2023/09/18 18:19:50;;;;;;;;;;;;;;;;;;5046869;28;20375;-44
2023/09/18 18:22:15;;;;;;;;;;;;;;;;;;5051035;28;19967;-45
2023/09/18 18:24:41;;;;;;;;;;;;;;;;;;5048618;28;19963;-44
2023/09/18 18:27:08;;;;;;;;;;;;;;;;;;5028093;28;19924;-44
2023/09/18 18:29:34;;;;;;;;;;;;;;;;;;5028892;28;20587;-44
2023/09/18 18:32:00;;;;;;;;;;;;;;;;;;5040178;28;19913;-43
2023/09/18 18:34:25;;;;;;;;;;;;;;;;;;5028112;28;19913;-43
2023/09/18 18:36:52;;;;;;;;;;;;;;;;;;5029219;28;19917;-47
2023/09/18 18:39:18;;;;;;;;;;;;;;;;;;5026858;28;19955;-44
2023/09/18 18:41:44;;;;;;;;;;;;;;;;;;5027900;28;20607;-44
2023/09/18 18:44:09;;;;;;;;;;;;;;;;;;5027775;28;19909;-44
2023/09/18 18:46:36;;;;;;;;;;;;;;;;;;5044806;28;19913;-47
2023/09/18 18:49:01;;;;;;;;;;;;;;;;;;5042905;28;20082;-44
2023/09/18 18:51:27;;;;;;;;;;;;;;;;;;5045958;28;20419;-45
2023/09/18 18:53:53;;;;;;;;;;;;;;;;;;5044188;28;20392;-44
2023/09/18 18:56:19;;;;;;;;;;;;;;;;;;5046836;28;20050;-44
2023/09/18 18:58:46;;;;;;;;;;;;;;;;;;5046167;28;20007;-45
2023/09/18 19:01:13;;;;;;;;;;;;;;;;;;5047613;28;19913;-43
2023/09/18 19:03:39;;;;;;;;;;;;;;;;;;5045171;28;19920;-43
2023/09/18 19:06:06;;;;;;;;;;;;;;;;;;5047635;28;19909;-44
2023/09/18 19:08:32;;;;;;;;;;;;;;;;;;5044518;28;20280;-45
2023/09/18 19:10:59;;;;;;;;;;;;;;;;;;5045690;28;19920;-46
2023/09/18 19:13:25;;;;;;;;;;;;;;;;;;5045752;28;19955;-44
2023/09/18 19:15:51;;;;;;;;;;;;;;;;;;5046533;28;20379;-44
2023/09/18 19:18:17;;;;;;;;;;;;;;;;;;5028883;28;19916;-43
2023/09/18 19:20:43;;;;;;;;;;;;;;;;;;5044982;28;20515;-44
2023/09/18 19:23:09;;;;;;;;;;;;;;;;;;5047186;28;19920;-45
2023/09/18 19:25:35;;;;;;;;;;;;;;;;;;5044938;28;20031;-45
2023/09/18 19:28:00;;;;;;;;;;;;;;;;;;5046490;28;19924;-44
2023/09/18 19:30:26;;;;;;;;;;;;;;;;;;5048080;28;20491;-43
2023/09/18 19:32:52;;;;;;;;;;;;;;;;;;5050145;28;19947;-46
2023/09/18 19:35:18;;;;;;;;;;;;;;;;;;5050431;28;20371;-43
2023/09/18 19:37:44;;;;;;;;;;;;;;;;;;5046303;28;19912;-46
2023/09/18 19:40:11;;;;;;;;;;;;;;;;;;5050251;28;19944;-43
2023/09/18 19:42:37;;;;;;;;;;;;;;;;;;5050506;28;20422;-45
2023/09/18 19:45:04;;;;;;;;;;;;;;;;;;5050306;28;19983;-43
2023/09/18 19:47:30;;;;;;;;;;;;;;;;;;5049858;28;19987;-44
2023/09/18 19:49:56;;;;;;;;;;;;;;;;;;5050004;28;19962;-44
2023/09/18 19:52:22;;;;;;;;;;;;;;;;;;5049401;28;19920;-43
2023/09/18 19:54:48;;;;;;;;;;;;;;;;;;5048974;28;19912;-43
2023/09/18 19:57:14;;;;;;;;;;;;;;;;;;5048253;28;19924;-43
2023/09/18 19:59:43;;;;;;;;;;;;;;;;;;5049822;28;20007;-45
2023/09/18 20:02:09;;;;;;;;;;;;;;;;;;5049412;28;19913;-43
2023/09/18 20:04:35;;;;;;;;;;;;;;;;;;5048359;28;19920;-43
2023/09/18 20:07:04;;;;;;;;;;;;;;;;;;5048605;28;19919;-43
2023/09/18 20:09:30;;;;;;;;;;;;;;;;;;5048857;28;19920;-44
2023/09/18 20:11:55;;;;;;;;;;;;;;;;;;5049777;28;20367;-45
2023/09/18 20:14:21;;;;;;;;;;;;;;;;;;5049431;28;19912;-44
2023/09/18 20:16:48;;;;;;;;;;;;;;;;;;5050406;28;19913;-42
2023/09/18 20:19:14;;;;;;;;;;;;;;;;;;5050022;28;19923;-42
2023/09/18 20:21:40;;;;;;;;;;;;;;;;;;5050617;28;19992;-42
2023/09/18 20:24:06;;;;;;;;;;;;;;;;;;5046281;28;19947;-42
2023/09/18 20:26:31;;;;;;;;;;;;;;;;;;5048898;28;19919;-41
2023/09/18 20:28:57;;;;;;;;;;;;;;;;;;5046595;28;20363;-41
2023/09/18 20:31:24;;;;;;;;;;;;;;;;;;5050564;28;19908;-41
2023/09/18 20:33:50;;;;;;;;;;;;;;;;;;5049668;28;19935;-41
2023/09/18 20:36:18;;;;;;;;;;;;;;;;;;5049239;28;20379;-41
2023/09/18 20:38:43;;;;;;;;;;;;;;;;;;5049726;28;19971;-41
2023/09/18 20:41:09;;;;;;;;;;;;;;;;;;5049485;28;19913;-41
2023/09/18 20:43:40;;;;;;;;;;;;;;;;;;5048776;28;19919;-41
2023/09/18 20:46:06;;;;;;;;;;;;;;;;;;5048954;28;19928;-41
2023/09/18 20:48:32;;;;;;;;;;;;;;;;;;5049388;28;19913;-41
2023/09/18 20:50:58;;;;;;;;;;;;;;;;;;5030568;28;19913;-41
2023/09/18 20:53:24;;;;;;;;;;;;;;;;;;5031504;28;19912;-41
2023/09/18 20:55:50;;;;;;;;;;;;;;;;;;5047234;28;19917;-41
2023/09/18 20:58:16;;;;;;;;;;;;;;;;;;5049045;28;20343;-41
2023/09/18 21:00:43;;;;;;;;;;;;;;;;;;5030839;28;20407;-42
2023/09/18 21:03:09;;;;;;;;;;;;;;;;;;5049240;28;19916;-41
2023/09/18 21:05:35;;;;;;;;;;;;;;;;;;5048876;28;20502;-41
2023/09/18 21:08:02;;;;;;;;;;;;;;;;;;5047779;28;19924;-41
2023/09/18 21:10:27;;;;;;;;;;;;;;;;;;5047098;28;20257;-41
2023/09/18 21:12:53;;;;;;;;;;;;;;;;;;5047598;28;20015;-41
2023/09/18 21:15:19;;;;;;;;;;;;;;;;;;5047457;28;19920;-42
2023/09/18 21:17:46;;;;;;;;;;;;;;;;;;5047512;28;19939;-42
2023/09/18 21:20:12;;;;;;;;;;;;;;;;;;5048605;28;19917;-41
2023/09/18 21:22:39;;;;;;;;;;;;;;;;;;5048418;28;19919;-41
2023/09/18 21:25:05;;;;;;;;;;;;;;;;;;5045438;28;19920;-41
2023/09/18 21:27:31;;;;;;;;;;;;;;;;;;5047484;28;19920;-42
2023/09/18 21:29:57;;;;;;;;;;;;;;;;;;5047805;28;19959;-41
2023/09/18 21:32:23;;;;;;;;;;;;;;;;;;5046969;28;20387;-43
2023/09/18 21:34:49;;;;;;;;;;;;;;;;;;5030571;28;19920;-41
2023/09/18 21:37:15;;;;;;;;;;;;;;;;;;5049261;28;19920;-42
2023/09/18 21:39:41;;;;;;;;;;;;;;;;;;5049959;28;19909;-41
2023/09/18 21:42:06;;;;;;;;;;;;;;;;;;5031185;28;19912;-41
2023/09/18 21:44:33;;;;;;;;;;;;;;;;;;5049168;28;20019;-41
2023/09/18 21:47:00;;;;;;;;;;;;;;;;;;5048853;28;19912;-41
2023/09/18 21:49:26;;;;;;;;;;;;;;;;;;5049022;28;19913;-41
2023/09/18 21:51:52;;;;;;;;;;;;;;;;;;5048380;28;20300;-41
2023/09/18 21:54:17;;;;;;;;;;;;;;;;;;5049088;28;19909;-41
2023/09/18 21:56:43;;;;;;;;;;;;;;;;;;5048533;28;19913;-42